sensor_id;sensor_type;location;lat;lon;timestamp;pressure;altitude;pressure_sealevel;temperature;humidity
78825;BME280;68176;45.554;10.220;2023-07-31T06:04:01;99662.84;;;27.88;51.52
78825;BME280;68176;45.554;10.220;2023-07-31T06:06:31;99662.28;;;27.86;51.77
78825;BME280;68176;45.554;10.220;2023-07-31T06:08:57;99658.75;;;27.85;51.39
78825;BME280;68176;45.554;10.220;2023-07-31T06:11:33;99658.25;;;27.88;51.44
78825;BME280;68176;45.554;10.220;2023-07-31T06:14:07;99657.38;;;27.83;51.33
78825;BME280;68176;45.554;10.220;2023-07-31T06:17:10;99660.69;;;27.90;51.36
78825;BME280;68176;45.554;10.220;2023-07-31T06:19:52;99653.88;;;27.82;51.61
78825;BME280;68176;45.554;10.220;2023-07-31T06:31:42;99646.34;;;27.84;51.48
78825;BME280;68176;45.554;10.220;2023-07-31T06:38:05;99643.31;;;27.81;51.18
78825;BME280;68176;45.554;10.220;2023-07-31T06:43:39;99654.69;;;27.83;51.25
78825;BME280;68176;45.554;10.220;2023-07-31T06:46:08;99661.19;;;27.87;51.17
78825;BME280;68176;45.554;10.220;2023-07-31T06:48:54;99663.38;;;27.90;51.26
78825;BME280;68176;45.554;10.220;2023-07-31T06:51:23;99678.56;;;27.96;51.02
78825;BME280;68176;45.554;10.220;2023-07-31T06:54:17;99673.13;;;27.91;51.10
78825;BME280;68176;45.554;10.220;2023-07-31T06:57:06;99687.47;;;27.96;51.13
78825;BME280;68176;45.554;10.220;2023-07-31T07:00:00;99667.09;;;27.84;51.00
78825;BME280;68176;45.554;10.220;2023-07-31T07:02:49;99677.94;;;27.89;50.84
78825;BME280;68176;45.554;10.220;2023-07-31T07:05:29;99694.75;;;27.96;51.18
78825;BME280;68176;45.554;10.220;2023-07-31T07:14:18;99673.63;;;27.88;51.04
78825;BME280;68176;45.554;10.220;2023-07-31T07:17:07;99678.50;;;27.91;50.95
78825;BME280;68176;45.554;10.220;2023-07-31T07:22:41;99659.09;;;27.89;50.71
78825;BME280;68176;45.554;10.220;2023-07-31T07:25:40;99664.78;;;27.92;50.83
78825;BME280;68176;45.554;10.220;2023-07-31T07:28:09;99674.75;;;27.92;50.86
78825;BME280;68176;45.554;10.220;2023-07-31T07:30:34;99688.84;;;27.99;50.69
78825;BME280;68176;45.554;10.220;2023-07-31T07:33:00;99682.09;;;27.96;50.93
78825;BME280;68176;45.554;10.220;2023-07-31T07:35:29;99685.59;;;27.97;50.74
78825;BME280;68176;45.554;10.220;2023-07-31T07:38:35;99666.09;;;27.90;50.76
78825;BME280;68176;45.554;10.220;2023-07-31T07:41:20;99682.53;;;28.05;53.75
78825;BME280;68176;45.554;10.220;2023-07-31T07:43:46;99678.16;;;28.04;53.88
78825;BME280;68176;45.554;10.220;2023-07-31T07:46:15;99670.97;;;27.93;53.77
78825;BME280;68176;45.554;10.220;2023-07-31T07:48:44;99669.97;;;27.99;53.41
78825;BME280;68176;45.554;10.220;2023-07-31T07:51:14;99659.59;;;27.86;52.42
78825;BME280;68176;45.554;10.220;2023-07-31T07:53:44;99668.50;;;27.70;54.18
78825;BME280;68176;45.554;10.220;2023-07-31T07:56:14;99667.66;;;27.86;54.28
78825;BME280;68176;45.554;10.220;2023-07-31T07:58:44;99676.28;;;28.04;53.87
78825;BME280;68176;45.554;10.220;2023-07-31T08:01:14;99686.31;;;28.09;53.13
78825;BME280;68176;45.554;10.220;2023-07-31T08:03:44;99664.56;;;27.77;53.50
78825;BME280;68176;45.554;10.220;2023-07-31T08:06:15;99684.25;;;27.78;53.53
78825;BME280;68176;45.554;10.220;2023-07-31T08:09:00;99684.41;;;27.88;53.29
78825;BME280;68176;45.554;10.220;2023-07-31T08:11:51;99683.91;;;27.91;53.40
78825;BME280;68176;45.554;10.220;2023-07-31T08:14:37;99682.09;;;27.96;52.93
78825;BME280;68176;45.554;10.220;2023-07-31T08:17:23;99662.56;;;27.89;52.87
78825;BME280;68176;45.554;10.220;2023-07-31T08:19:48;99662.16;;;27.97;52.52
78825;BME280;68176;45.554;10.220;2023-07-31T08:22:14;99671.63;;;28.00;52.17
78825;BME280;68176;45.554;10.220;2023-07-31T08:24:45;99659.19;;;27.99;52.24
78825;BME280;68176;45.554;10.220;2023-07-31T08:27:22;99673.66;;;28.10;52.09
78825;BME280;68176;45.554;10.220;2023-07-31T08:30:23;99652.19;;;27.98;52.24
78825;BME280;68176;45.554;10.220;2023-07-31T08:32:51;99667.38;;;28.04;52.18
78825;BME280;68176;45.554;10.220;2023-07-31T08:38:44;99657.59;;;27.98;52.03
78825;BME280;68176;45.554;10.220;2023-07-31T08:45:13;99662.78;;;28.04;51.82
78825;BME280;68176;45.554;10.220;2023-07-31T08:55:24;99643.28;;;27.97;49.35
78825;BME280;68176;45.554;10.220;2023-07-31T08:57:51;99660.84;;;28.00;49.70
78825;BME280;68176;45.554;10.220;2023-07-31T09:00:21;99664.25;;;28.12;49.79
78825;BME280;68176;45.554;10.220;2023-07-31T09:03:02;99665.06;;;28.13;49.86
78825;BME280;68176;45.554;10.220;2023-07-31T09:05:30;99659.13;;;28.11;50.28
78825;BME280;68176;45.554;10.220;2023-07-31T09:07:56;99648.50;;;28.04;50.31
78825;BME280;68176;45.554;10.220;2023-07-31T09:10:23;99638.22;;;28.01;50.09
78825;BME280;68176;45.554;10.220;2023-07-31T09:12:52;99656.94;;;28.08;50.07
78825;BME280;68176;45.554;10.220;2023-07-31T09:15:27;99660.81;;;28.17;50.25
78825;BME280;68176;45.554;10.220;2023-07-31T09:18:00;99644.28;;;28.08;50.46
78825;BME280;68176;45.554;10.220;2023-07-31T09:20:32;99651.84;;;28.11;50.42
78825;BME280;68176;45.554;10.220;2023-07-31T09:23:04;99649.75;;;28.18;50.19
78825;BME280;68176;45.554;10.220;2023-07-31T09:25:33;99647.84;;;28.14;50.17
78825;BME280;68176;45.554;10.220;2023-07-31T09:28:01;99648.66;;;28.14;50.25
78825;BME280;68176;45.554;10.220;2023-07-31T09:30:27;99644.94;;;28.20;50.51
78825;BME280;68176;45.554;10.220;2023-07-31T09:36:05;99642.69;;;28.12;50.18
78825;BME280;68176;45.554;10.220;2023-07-31T09:38:30;99634.03;;;28.10;50.03
78825;BME280;68176;45.554;10.220;2023-07-31T09:40:59;99657.66;;;28.25;50.40
78825;BME280;68176;45.554;10.220;2023-07-31T09:43:37;99642.19;;;28.15;50.20
78825;BME280;68176;45.554;10.220;2023-07-31T09:46:03;99653.09;;;28.25;50.09
78825;BME280;68176;45.554;10.220;2023-07-31T09:48:29;99643.88;;;28.21;50.10
78825;BME280;68176;45.554;10.220;2023-07-31T09:51:04;99637.91;;;28.19;50.04
78825;BME280;68176;45.554;10.220;2023-07-31T09:53:30;99653.91;;;28.26;50.17
78825;BME280;68176;45.554;10.220;2023-07-31T09:55:59;99650.94;;;28.27;50.21
78825;BME280;68176;45.554;10.220;2023-07-31T09:58:29;99646.38;;;28.28;50.29
78825;BME280;68176;45.554;10.220;2023-07-31T10:00:59;99643.88;;;28.21;49.98
78825;BME280;68176;45.554;10.220;2023-07-31T10:03:29;99643.94;;;28.26;50.08
78825;BME280;68176;45.554;10.220;2023-07-31T10:06:00;99641.47;;;28.25;49.90
78825;BME280;68176;45.554;10.220;2023-07-31T10:08:30;99651.56;;;28.34;49.77
78825;BME280;68176;45.554;10.220;2023-07-31T10:11:00;99652.72;;;28.38;50.01
78825;BME280;68176;45.554;10.220;2023-07-31T10:13:30;99652.22;;;28.41;50.02
78825;BME280;68176;45.554;10.220;2023-07-31T10:15:59;99652.53;;;28.45;49.56
78825;BME280;68176;45.554;10.220;2023-07-31T10:18:29;99620.88;;;28.40;49.88
78825;BME280;68176;45.554;10.220;2023-07-31T10:20:59;99632.25;;;28.42;49.47
78825;BME280;68176;45.554;10.220;2023-07-31T10:23:29;99624.69;;;28.39;49.73
78825;BME280;68176;45.554;10.220;2023-07-31T10:26:00;99614.44;;;28.41;49.80
78825;BME280;68176;45.554;10.220;2023-07-31T10:28:29;99632.56;;;28.46;49.88
78825;BME280;68176;45.554;10.220;2023-07-31T10:31:00;99642.03;;;28.48;49.69
78825;BME280;68176;45.554;10.220;2023-07-31T10:33:29;99630.13;;;28.44;49.83
78825;BME280;68176;45.554;10.220;2023-07-31T10:36:20;99626.41;;;28.50;49.56
78825;BME280;68176;45.554;10.220;2023-07-31T10:38:49;99613.38;;;28.42;49.86
78825;BME280;68176;45.554;10.220;2023-07-31T10:41:15;99616.06;;;28.42;49.54
78825;BME280;68176;45.554;10.220;2023-07-31T10:43:54;99638.56;;;28.53;50.08
78825;BME280;68176;45.554;10.220;2023-07-31T10:49:31;99617.69;;;28.43;49.41
78825;BME280;68176;45.554;10.220;2023-07-31T10:52:05;99619.13;;;28.51;49.59
78825;BME280;68176;45.554;10.220;2023-07-31T10:58:22;99620.28;;;28.60;49.29
78825;BME280;68176;45.554;10.220;2023-07-31T11:01:49;99625.44;;;28.62;49.48
78825;BME280;68176;45.554;10.220;2023-07-31T11:04:16;99625.44;;;28.62;49.65
78825;BME280;68176;45.554;10.220;2023-07-31T11:07:22;99622.16;;;28.59;49.95
78825;BME280;68176;45.554;10.220;2023-07-31T11:13:42;99643.91;;;28.70;49.91
78825;BME280;68176;45.554;10.220;2023-07-31T11:18:45;99642.34;;;28.74;49.82
78825;BME280;68176;45.554;10.220;2023-07-31T11:21:22;99620.66;;;28.69;49.88
78825;BME280;68176;45.554;10.220;2023-07-31T11:24:31;99636.47;;;28.82;50.05
78825;BME280;68176;45.554;10.220;2023-07-31T11:27:15;99607.47;;;28.72;49.96
78825;BME280;68176;45.554;10.220;2023-07-31T11:33:21;99619.22;;;28.88;49.88
78825;BME280;68176;45.554;10.220;2023-07-31T11:43:06;99594.47;;;28.96;50.17
78825;BME280;68176;45.554;10.220;2023-07-31T11:49:32;99574.13;;;29.20;49.32
78825;BME280;68176;45.554;10.220;2023-07-31T12:05:06;99561.47;;;29.68;46.64
78825;BME280;68176;45.554;10.220;2023-07-31T12:21:52;99557.88;;;30.14;45.13
78825;BME280;68176;45.554;10.220;2023-07-31T12:24:47;99548.13;;;30.08;45.55
78825;BME280;68176;45.554;10.220;2023-07-31T12:28:03;99531.31;;;30.01;46.76
78825;BME280;68176;45.554;10.220;2023-07-31T13:51:25;99439.25;;;33.83;37.42
78825;BME280;68176;45.554;10.220;2023-07-31T14:04:15;99430.13;;;34.11;36.46
78825;BME280;68176;45.554;10.220;2023-07-31T14:07:07;99427.13;;;34.63;36.38
78825;BME280;68176;45.554;10.220;2023-07-31T14:09:33;99428.34;;;34.85;36.80
78825;BME280;68176;45.554;10.220;2023-07-31T14:12:30;99421.22;;;34.56;36.74
78825;BME280;68176;45.554;10.220;2023-07-31T14:17:45;99423.56;;;33.32;37.69
78825;BME280;68176;45.554;10.220;2023-07-31T14:23:50;99426.03;;;32.52;38.53
78825;BME280;68176;45.554;10.220;2023-07-31T14:26:16;99409.09;;;32.32;39.57
78825;BME280;68176;45.554;10.220;2023-07-31T14:28:44;99419.47;;;32.24;39.45
78825;BME280;68176;45.554;10.220;2023-07-31T14:31:50;99423.63;;;32.17;40.16
78825;BME280;68176;45.554;10.220;2023-07-31T14:45:26;99404.84;;;31.82;42.10
78825;BME280;68176;45.554;10.220;2023-07-31T15:04:29;99392.63;;;31.84;42.75
78825;BME280;68176;45.554;10.220;2023-07-31T15:17:37;99379.34;;;31.83;43.16
78825;BME280;68176;45.554;10.220;2023-07-31T15:20:03;99379.81;;;31.90;40.55
78825;BME280;68176;45.554;10.220;2023-07-31T15:22:29;99381.72;;;32.28;40.97
78825;BME280;68176;45.554;10.220;2023-07-31T15:24:57;99385.31;;;32.52;38.81
78825;BME280;68176;45.554;10.220;2023-07-31T15:27:29;99369.88;;;32.77;38.03
78825;BME280;68176;45.554;10.220;2023-07-31T15:30:00;99367.28;;;32.90;39.28
78825;BME280;68176;45.554;10.220;2023-07-31T15:32:27;99369.75;;;33.34;38.81
78825;BME280;68176;45.554;10.220;2023-07-31T15:34:57;99353.34;;;33.39;37.59
78825;BME280;68176;45.554;10.220;2023-07-31T15:37:31;99357.59;;;33.45;36.59
78825;BME280;68176;45.554;10.220;2023-07-31T15:40:07;99355.47;;;33.23;39.19
78825;BME280;68176;45.554;10.220;2023-07-31T15:42:42;99356.78;;;33.26;38.27
78825;BME280;68176;45.554;10.220;2023-07-31T15:45:08;99351.28;;;33.31;38.15
78825;BME280;68176;45.554;10.220;2023-07-31T15:47:41;99357.00;;;33.48;38.67
78825;BME280;68176;45.554;10.220;2023-07-31T15:50:06;99364.47;;;33.80;38.73
78825;BME280;68176;45.554;10.220;2023-07-31T15:52:46;99338.09;;;34.13;37.85
78825;BME280;68176;45.554;10.220;2023-07-31T15:55:12;99330.78;;;33.57;36.91
78825;BME280;68176;45.554;10.220;2023-07-31T15:57:37;99337.16;;;34.04;37.14
78825;BME280;68176;45.554;10.220;2023-07-31T16:00:09;99336.22;;;34.08;35.87
78825;BME280;68176;45.554;10.220;2023-07-31T16:02:36;99324.25;;;34.09;35.55
78825;BME280;68176;45.554;10.220;2023-07-31T16:05:06;99327.94;;;34.00;37.16
78825;BME280;68176;45.554;10.220;2023-07-31T16:07:43;99323.28;;;34.19;36.75
78825;BME280;68176;45.554;10.220;2023-07-31T16:10:26;99321.47;;;34.14;35.84
78825;BME280;68176;45.554;10.220;2023-07-31T16:12:51;99334.94;;;34.06;36.14
78825;BME280;68176;45.554;10.220;2023-07-31T16:15:16;99337.22;;;34.31;35.46
78825;BME280;68176;45.554;10.220;2023-07-31T16:17:48;99323.44;;;33.76;36.85
78825;BME280;68176;45.554;10.220;2023-07-31T16:20:22;99343.44;;;33.67;37.45
78825;BME280;68176;45.554;10.220;2023-07-31T16:22:59;99321.53;;;33.40;38.10
78825;BME280;68176;45.554;10.220;2023-07-31T16:25:53;99333.03;;;33.32;38.22
78825;BME280;68176;45.554;10.220;2023-07-31T16:28:56;99322.63;;;33.20;38.40
78825;BME280;68176;45.554;10.220;2023-07-31T16:31:33;99318.34;;;33.14;38.52
78825;BME280;68176;45.554;10.220;2023-07-31T16:34:12;99311.34;;;33.08;38.97
78825;BME280;68176;45.554;10.220;2023-07-31T16:36:48;99308.16;;;33.01;39.35
78825;BME280;68176;45.554;10.220;2023-07-31T16:39:27;99322.47;;;33.06;39.48
78825;BME280;68176;45.554;10.220;2023-07-31T16:42:03;99309.47;;;33.03;39.27
78825;BME280;68176;45.554;10.220;2023-07-31T16:44:55;99314.75;;;32.95;39.79
78825;BME280;68176;45.554;10.220;2023-07-31T16:47:27;99323.06;;;33.03;39.72
78825;BME280;68176;45.554;10.220;2023-07-31T16:50:19;99323.50;;;32.92;40.31
78825;BME280;68176;45.554;10.220;2023-07-31T16:56:09;99328.34;;;32.95;40.38
78825;BME280;68176;45.554;10.220;2023-07-31T17:01:30;99319.16;;;32.91;40.42
78825;BME280;68176;45.554;10.220;2023-07-31T17:04:00;99325.13;;;32.93;40.41
78825;BME280;68176;45.554;10.220;2023-07-31T17:06:48;99312.50;;;32.78;40.77
78825;BME280;68176;45.554;10.220;2023-07-31T17:09:14;99325.00;;;32.79;40.86
78825;BME280;68176;45.554;10.220;2023-07-31T17:15:11;99341.63;;;32.78;41.07
78825;BME280;68176;45.554;10.220;2023-07-31T17:23:38;99334.78;;;32.56;41.40
78825;BME280;68176;45.554;10.220;2023-07-31T17:26:03;99330.81;;;32.44;42.08
78825;BME280;68176;45.554;10.220;2023-07-31T17:28:32;99343.63;;;32.38;42.45
78825;BME280;68176;45.554;10.220;2023-07-31T17:31:23;99331.84;;;32.24;42.29
78825;BME280;68176;45.554;10.220;2023-07-31T17:34:01;99349.78;;;32.20;42.82
78825;BME280;68176;45.554;10.220;2023-07-31T17:36:57;99355.22;;;32.15;42.63
78825;BME280;68176;45.554;10.220;2023-07-31T17:39:55;99334.19;;;31.97;42.82
78825;BME280;68176;45.554;10.220;2023-07-31T17:42:20;99331.56;;;31.87;43.26
78825;BME280;68176;45.554;10.220;2023-07-31T17:44:49;99355.38;;;31.95;43.31
78825;BME280;68176;45.554;10.220;2023-07-31T17:47:19;99346.25;;;31.86;43.48
78825;BME280;68176;45.554;10.220;2023-07-31T17:49:49;99351.16;;;31.79;43.77
78825;BME280;68176;45.554;10.220;2023-07-31T17:52:19;99370.66;;;31.81;43.95
78825;BME280;68176;45.554;10.220;2023-07-31T17:54:49;99349.09;;;31.65;43.67
78825;BME280;68176;45.554;10.220;2023-07-31T17:57:20;99349.13;;;31.60;44.18
78825;BME280;68176;45.554;10.220;2023-07-31T17:59:49;99362.69;;;31.60;44.13
78825;BME280;68176;45.554;10.220;2023-07-31T18:02:19;99367.34;;;31.55;44.46
78825;BME280;68176;45.554;10.220;2023-07-31T18:04:54;99377.91;;;31.56;44.72
78825;BME280;68176;45.554;10.220;2023-07-31T18:07:21;99377.41;;;31.44;44.24
78825;BME280;68176;45.554;10.220;2023-07-31T18:13:00;99379.88;;;31.36;44.96
78825;BME280;68176;45.554;10.220;2023-07-31T18:15:25;99374.22;;;31.27;44.85
78825;BME280;68176;45.554;10.220;2023-07-31T18:17:59;99381.22;;;31.33;45.09
78825;BME280;68176;45.554;10.220;2023-07-31T18:20:32;99389.22;;;31.09;45.23
78825;BME280;68176;45.554;10.220;2023-07-31T18:23:44;99370.53;;;30.93;45.21
78825;BME280;68176;45.554;10.220;2023-07-31T18:32:55;99390.03;;;31.05;45.41
78825;BME280;68176;45.554;10.220;2023-07-31T18:49:54;99393.88;;;30.89;45.76
78825;BME280;68176;45.554;10.220;2023-07-31T19:06:53;99393.34;;;30.77;45.97
78825;BME280;68176;45.554;10.220;2023-07-31T19:35:02;99397.19;;;30.45;46.88
78825;BME280;68176;45.554;10.220;2023-07-31T19:41:23;99413.44;;;30.45;47.22
78825;BME280;68176;45.554;10.220;2023-07-31T19:44:32;99412.88;;;30.48;46.80
78825;BME280;68176;45.554;10.220;2023-07-31T19:55:38;99406.94;;;30.31;47.29
78825;BME280;68176;45.554;10.220;2023-07-31T20:02:01;99422.88;;;30.38;47.34
78825;BME280;68176;45.554;10.220;2023-07-31T20:15:00;99393.94;;;30.18;47.76
78825;BME280;68176;45.554;10.220;2023-07-31T20:21:26;99399.34;;;30.18;47.52
78825;BME280;68176;45.554;10.220;2023-07-31T20:24:12;99394.47;;;30.20;47.92
78825;BME280;68176;45.554;10.220;2023-07-31T20:57:36;99377.69;;;29.98;48.30
78825;BME280;68176;45.554;10.220;2023-07-31T21:03:25;99372.28;;;29.93;48.15
78825;BME280;68176;45.554;10.220;2023-07-31T21:25:45;99344.41;;;29.72;48.72
78825;BME280;68176;45.554;10.220;2023-07-31T21:31:41;99349.53;;;29.69;48.83
78825;BME280;68176;45.554;10.220;2023-07-31T21:34:52;99368.44;;;29.79;48.66
78825;BME280;68176;45.554;10.220;2023-07-31T21:37:57;99352.22;;;29.63;48.62
78825;BME280;68176;45.554;10.220;2023-07-31T21:44:23;99345.72;;;29.64;48.44
78825;BME280;68176;45.554;10.220;2023-07-31T21:54:08;99325.19;;;29.58;49.08
78825;BME280;68176;45.554;10.220;2023-07-31T21:59:34;99329.25;;;29.56;48.83
78825;BME280;68176;45.554;10.220;2023-07-31T22:42:29;99342.97;;;29.44;49.29
78825;BME280;68176;45.554;10.220;2023-07-31T22:45:28;99348.38;;;29.44;49.34
78825;BME280;68176;45.554;10.220;2023-07-31T23:03:50;99296.44;;;29.22;49.13
78825;BME280;68176;45.554;10.220;2023-07-31T23:06:44;99293.19;;;29.20;49.38
78825;BME280;68176;45.554;10.220;2023-07-31T23:09:22;99287.78;;;29.20;49.61
78825;BME280;68176;45.554;10.220;2023-07-31T23:19:00;99288.31;;;29.17;49.76
78825;BME280;68176;45.554;10.220;2023-07-31T23:38:50;99273.47;;;29.15;49.93
78825;BME280;68176;45.554;10.220;2023-07-31T23:41:18;99246.16;;;29.01;49.69
78825;BME280;68176;45.554;10.220;2023-07-31T23:44:33;99241.56;;;29.01;49.74
78825;BME280;68176;45.554;10.220;2023-07-31T23:50:43;99229.66;;;28.97;49.46
78825;BME280;68176;45.554;10.220;2023-07-31T23:53:25;99225.38;;;28.96;49.86
